createdAt,value
2023-09-12T00:02:00.124Z,99478.97
2023-09-12T00:04:02.724Z,99483.59
2023-09-12T00:06:06.127Z,99481.72
2023-09-12T00:08:08.723Z,99482.44
2023-09-12T00:10:11.372Z,99483.47
2023-09-12T00:12:16.861Z,99482.44
2023-09-12T00:14:19.989Z,99488.34
2023-09-12T00:16:22.293Z,99485.03
2023-09-12T00:18:25.188Z,99488.66
2023-09-12T00:20:27.713Z,99488.53
2023-09-12T00:22:30.237Z,99479.38
2023-09-12T00:24:32.820Z,99485.59
2023-09-12T00:26:35.453Z,99485.78
2023-09-12T00:28:40.140Z,99485.03
2023-09-12T00:30:42.863Z,99487.50
2023-09-12T00:32:47.713Z,99486.63
2023-09-12T00:34:50.149Z,99488.34
2023-09-12T00:36:52.715Z,99489.09
2023-09-12T00:38:55.140Z,99480.56
2023-09-12T00:40:57.595Z,99491.69
2023-09-12T00:43:00.732Z,99487.06
2023-09-12T00:45:03.135Z,99482.03
2023-09-12T00:47:06.452Z,99484.34
2023-09-12T00:49:10.259Z,99482.03
2023-09-12T00:51:12.832Z,99488.25
2023-09-12T00:53:17.442Z,99493.00
2023-09-12T00:55:20.147Z,99492.56
2023-09-12T00:57:23.467Z,99485.94
2023-09-12T00:59:26.350Z,99486.19
2023-09-12T01:01:29.002Z,99493.72
2023-09-12T01:03:32.358Z,99484.72
2023-09-12T01:05:35.577Z,99484.59
2023-09-12T01:07:39.197Z,99486.31
2023-09-12T01:09:42.443Z,99495.41
2023-09-12T01:11:45.617Z,99485.56
2023-09-12T01:13:48.168Z,99492.91
2023-09-12T01:15:50.512Z,99485.53
2023-09-12T01:17:53.132Z,99487.72
2023-09-12T01:19:55.722Z,99493.06
2023-09-12T01:22:42.185Z,99490.47
2023-09-12T01:25:02.791Z,99472.78
2023-09-12T01:27:29.342Z,99488.66
2023-09-12T01:29:33.436Z,99484.78
2023-09-12T01:31:38.720Z,99485.09
2023-09-12T01:33:41.842Z,99490.31
2023-09-12T01:35:45.039Z,99496.38
2023-09-12T01:37:47.672Z,99483.56
2023-09-12T01:39:50.595Z,99491.41
2023-09-12T01:41:54.718Z,99498.75
2023-09-12T01:43:58.929Z,99499.66
2023-09-12T01:46:03.347Z,99502.00
2023-09-12T01:48:08.086Z,99494.06
2023-09-12T01:50:14.471Z,99505.31
2023-09-12T01:52:17.518Z,99501.63
2023-09-12T01:54:21.981Z,99498.47
2023-09-12T01:56:25.616Z,99506.28
2023-09-12T01:58:28.199Z,99494.13
2023-09-12T02:00:31.172Z,99491.69
2023-09-12T02:02:33.620Z,99500.91
2023-09-12T02:04:36.157Z,99500.78
2023-09-12T02:06:38.653Z,99496.75
2023-09-12T02:08:41.446Z,99493.28
2023-09-12T02:10:45.199Z,99499.03
2023-09-12T02:12:47.715Z,99506.00
2023-09-12T02:14:50.124Z,99504.69
2023-09-12T02:16:52.718Z,99502.47
2023-09-12T02:18:56.852Z,99501.06
2023-09-12T02:21:02.501Z,99500.13
2023-09-12T02:23:05.045Z,99502.97
2023-09-12T02:25:08.027Z,99493.03
2023-09-12T02:27:10.417Z,99501.25
2023-09-12T02:29:12.954Z,99500.81
2023-09-12T02:31:15.372Z,99503.81
2023-09-12T02:33:17.990Z,99503.38
2023-09-12T02:35:20.370Z,99499.66
2023-09-12T02:37:22.756Z,99500.91
2023-09-12T02:39:25.311Z,99496.13
2023-09-12T02:41:27.812Z,99498.19
2023-09-12T02:43:30.932Z,99501.31
2023-09-12T02:45:33.418Z,99500.06
2023-09-12T02:47:35.858Z,99495.88
2023-09-12T02:49:38.496Z,99498.97
2023-09-12T02:51:41.169Z,99495.22
2023-09-12T02:53:43.723Z,99496.53
2023-09-12T02:55:46.258Z,99491.78
2023-09-12T02:57:48.876Z,99492.81
2023-09-12T02:59:51.459Z,99489.38
2023-09-12T03:01:53.922Z,99497.31
2023-09-12T03:03:56.642Z,99498.31
2023-09-12T03:06:05.182Z,99494.25
2023-09-12T03:08:07.720Z,99497.13
2023-09-12T03:10:10.523Z,99497.38
2023-09-12T03:12:13.216Z,99496.53
2023-09-12T03:14:15.671Z,99497.25
2023-09-12T03:16:18.865Z,99487.91
2023-09-12T03:18:21.783Z,99493.22
2023-09-12T03:20:24.601Z,99497.53
2023-09-12T03:22:27.278Z,99498.06
2023-09-12T03:24:30.369Z,99502.97
2023-09-12T03:26:35.668Z,99500.09
2023-09-12T03:28:38.305Z,99503.28
2023-09-12T03:30:41.168Z,99499.75
2023-09-12T03:32:44.606Z,99491.56
2023-09-12T03:34:47.256Z,99500.50
2023-09-12T03:36:49.999Z,99492.28
2023-09-12T03:38:52.420Z,99500.63
2023-09-12T03:40:54.868Z,99502.50
2023-09-12T03:42:57.862Z,99500.34
2023-09-12T03:45:00.376Z,99502.22
2023-09-12T03:47:02.846Z,99504.22
2023-09-12T03:49:05.371Z,99499.03
2023-09-12T03:51:07.971Z,99502.78
2023-09-12T03:53:10.693Z,99517.31
2023-09-12T03:55:13.132Z,99516.00
2023-09-12T03:57:16.668Z,99506.38
2023-09-12T03:59:19.146Z,99513.09
2023-09-12T04:01:22.489Z,99508.66
2023-09-12T04:03:25.109Z,99507.06
2023-09-12T04:05:28.400Z,99512.06
2023-09-12T04:07:30.914Z,99521.28
2023-09-12T04:09:34.098Z,99513.34
2023-09-12T04:11:46.337Z,99511.88
2023-09-12T04:13:49.983Z,99509.00
2023-09-12T04:15:53.322Z,99509.88
2023-09-12T04:17:56.238Z,99513.59
2023-09-12T04:19:58.778Z,99510.63
2023-09-12T04:22:02.489Z,99509.03
2023-09-12T04:24:05.799Z,99511.75
2023-09-12T04:26:08.961Z,99505.16
2023-09-12T04:28:11.515Z,99512.63
2023-09-12T04:30:14.512Z,99503.94
2023-09-12T04:32:18.394Z,99509.75
2023-09-12T04:34:21.014Z,99510.50
2023-09-12T04:36:24.596Z,99508.63
2023-09-12T04:38:28.010Z,99514.59
2023-09-12T04:40:31.068Z,99516.75
2023-09-12T04:42:33.867Z,99516.19
2023-09-12T04:44:41.137Z,99522.69
2023-09-12T04:46:44.663Z,99525.88
2023-09-12T04:48:47.742Z,99519.81
2023-09-12T04:50:50.394Z,99518.09
2023-09-12T04:52:52.723Z,99521.28
2023-09-12T04:54:55.533Z,99514.53
2023-09-12T04:56:58.123Z,99522.69
2023-09-12T04:59:00.603Z,99522.78
2023-09-12T05:01:03.884Z,99526.13
2023-09-12T05:03:06.733Z,99521.09
2023-09-12T05:05:09.733Z,99524.13
2023-09-12T05:07:12.196Z,99521.09
2023-09-12T05:09:14.908Z,99513.97
2023-09-12T05:11:17.347Z,99520.03
2023-09-12T05:13:20.393Z,99521.22
2023-09-12T05:15:22.774Z,99523.97
2023-09-12T05:17:26.438Z,99519.97
2023-09-12T05:19:29.193Z,99519.53
2023-09-12T05:21:31.704Z,99522.88
2023-09-12T05:23:34.825Z,99522.59
2023-09-12T05:25:37.440Z,99519.16
2023-09-12T05:27:40.012Z,99524.13
2023-09-12T05:29:43.154Z,99523.88
2023-09-12T05:31:45.851Z,99531.22
2023-09-12T05:33:48.662Z,99530.69
2023-09-12T05:35:51.235Z,99529.38
2023-09-12T05:37:53.809Z,99534.88
2023-09-12T05:39:56.326Z,99540.38
2023-09-12T05:41:59.257Z,99533.34
2023-09-12T05:44:01.817Z,99533.50
2023-09-12T05:46:04.347Z,99526.88
2023-09-12T05:48:06.973Z,99539.28
2023-09-12T05:50:10.851Z,99541.16
2023-09-12T05:52:13.515Z,99532.81
2023-09-12T05:54:17.093Z,99540.50
2023-09-12T05:56:21.962Z,99540.34
2023-09-12T05:58:24.422Z,99545.81
2023-09-12T06:00:27.607Z,99542.09
2023-09-12T06:02:32.033Z,99538.03
2023-09-12T06:04:34.568Z,99532.84
2023-09-12T06:06:37.137Z,99534.28
2023-09-12T06:08:39.940Z,99534.56
2023-09-12T06:10:42.543Z,99547.13
2023-09-12T06:12:45.324Z,99549.59
2023-09-12T06:14:47.909Z,99549.00
2023-09-12T06:16:50.515Z,99547.69
2023-09-12T06:18:55.141Z,99550.16
2023-09-12T06:20:57.755Z,99556.47
2023-09-12T06:23:00.848Z,99550.25
2023-09-12T06:25:04.653Z,99563.44
2023-09-12T06:27:07.110Z,99555.63
2023-09-12T06:29:10.320Z,99561.53
2023-09-12T06:31:14.336Z,99559.16
2023-09-12T06:33:16.896Z,99561.72
2023-09-12T06:35:19.519Z,99568.94
2023-09-12T06:37:22.626Z,99566.59
2023-09-12T06:39:25.945Z,99568.84
2023-09-12T06:41:29.259Z,99570.06
2023-09-12T06:43:32.284Z,99572.16
2023-09-12T06:45:34.859Z,99568.28
2023-09-12T06:47:37.446Z,99568.06
2023-09-12T06:49:39.930Z,99573.56
2023-09-12T06:51:42.800Z,99574.81
2023-09-12T06:53:45.555Z,99575.75
2023-09-12T06:55:48.163Z,99573.16
2023-09-12T06:57:50.708Z,99579.84
2023-09-12T06:59:53.207Z,99576.84
2023-09-12T07:01:55.718Z,99575.97
2023-09-12T07:03:58.329Z,99577.06
2023-09-12T07:06:01.206Z,99574.50
2023-09-12T07:08:03.827Z,99583.06
2023-09-12T07:10:22.808Z,99580.91
2023-09-12T07:12:30.522Z,99589.47
2023-09-12T07:14:33.417Z,99583.34
2023-09-12T07:16:35.981Z,99589.63
2023-09-12T07:18:38.699Z,99588.38
2023-09-12T07:20:41.212Z,99592.47
2023-09-12T07:22:43.659Z,99588.91
2023-09-12T07:24:46.287Z,99590.75
2023-09-12T07:26:48.853Z,99591.50
2023-09-12T07:28:51.558Z,99590.66
2023-09-12T07:30:56.080Z,99586.56
2023-09-12T07:32:58.739Z,99589.41
2023-09-12T07:35:01.132Z,99588.44
2023-09-12T07:37:04.174Z,99595.22
2023-09-12T07:39:07.038Z,99590.78
2023-09-12T07:41:09.587Z,99588.59
2023-09-12T07:43:12.525Z,99591.41
2023-09-12T07:45:15.209Z,99591.59
2023-09-12T07:47:18.160Z,99588.50
2023-09-12T07:49:20.591Z,99590.91
2023-09-12T07:51:24.410Z,99590.09
2023-09-12T07:53:26.854Z,99588.72
2023-09-12T07:55:32.480Z,99585.78
2023-09-12T07:57:35.718Z,99578.50
2023-09-12T07:59:38.262Z,99581.75
2023-09-12T08:01:40.730Z,99583.28
2023-09-12T08:03:44.369Z,99582.28
2023-09-12T08:05:59.294Z,99577.75
2023-09-12T08:08:02.212Z,99579.44
2023-09-12T08:10:05.371Z,99578.38
2023-09-12T08:12:08.232Z,99580.94
2023-09-12T08:14:10.660Z,99582.81
2023-09-12T08:16:13.143Z,99575.16
2023-09-12T08:18:16.560Z,99580.69
2023-09-12T08:20:19.751Z,99574.34
2023-09-12T08:22:22.309Z,99572.59
2023-09-12T08:24:24.967Z,99574.28
2023-09-12T08:26:27.966Z,99569.53
2023-09-12T08:28:30.596Z,99575.31
2023-09-12T08:30:34.964Z,99566.63
2023-09-12T08:32:37.492Z,99570.00
2023-09-12T08:34:39.989Z,99570.59
2023-09-12T08:36:42.585Z,99562.19
2023-09-12T08:38:45.069Z,99565.19
2023-09-12T08:40:53.948Z,99567.91
2023-09-12T08:42:59.044Z,99561.41
2023-09-12T08:45:02.515Z,99562.19
2023-09-12T08:47:06.545Z,99553.66
2023-09-12T08:49:10.994Z,99554.94
2023-09-12T08:51:14.494Z,99559.13
2023-09-12T08:53:17.085Z,99561.63
2023-09-12T08:55:19.741Z,99558.09
2023-09-12T08:57:23.367Z,99558.09
2023-09-12T08:59:28.331Z,99557.72
2023-09-12T09:01:34.757Z,99553.31
2023-09-12T09:03:38.042Z,99563.81
2023-09-12T09:05:43.719Z,99562.19
2023-09-12T09:07:46.045Z,99555.47
2023-09-12T09:09:51.127Z,99559.19
2023-09-12T09:11:53.645Z,99551.59
2023-09-12T09:13:57.542Z,99554.09
2023-09-12T09:16:21.561Z,99552.53
2023-09-12T09:18:24.396Z,99552.06
2023-09-12T09:20:29.961Z,99547.81
2023-09-12T09:22:32.408Z,99555.38
2023-09-12T09:24:35.163Z,99550.72
2023-09-12T09:26:46.778Z,99549.72
2023-09-12T09:29:07.273Z,99548.94
2023-09-12T09:31:15.770Z,99548.53
2023-09-12T09:33:19.115Z,99550.50
2023-09-12T09:35:21.689Z,99548.50
2023-09-12T09:37:24.951Z,99548.34
2023-09-12T09:39:32.306Z,99549.00
2023-09-12T09:41:34.976Z,99549.44
2023-09-12T09:43:37.888Z,99548.19
2023-09-12T09:45:47.860Z,99543.75
2023-09-12T09:47:52.365Z,99545.06
2023-09-12T09:49:54.927Z,99548.94
2023-09-12T09:51:58.421Z,99552.22
2023-09-12T09:54:02.149Z,99551.41
2023-09-12T09:56:16.126Z,99547.00
2023-09-12T09:58:18.968Z,99545.50
2023-09-12T10:00:24.058Z,99556.88
2023-09-12T10:02:28.925Z,99544.25
2023-09-12T10:04:45.722Z,99540.19
2023-09-12T10:06:48.599Z,99545.81
2023-09-12T10:08:53.810Z,99541.22
2023-09-12T10:10:56.317Z,99550.88
2023-09-12T10:13:00.083Z,99544.06
2023-09-12T10:15:03.201Z,99539.41
2023-09-12T10:17:08.150Z,99541.59
2023-09-12T10:19:19.914Z,99544.16
2023-09-12T10:21:30.732Z,99539.69
2023-09-12T10:23:43.841Z,99542.91
2023-09-12T10:25:47.684Z,99537.84
2023-09-12T10:27:51.948Z,99542.38
2023-09-12T10:29:55.198Z,99529.78
2023-09-12T10:31:57.807Z,99532.97
2023-09-12T10:34:01.480Z,99528.91
2023-09-12T10:36:10.020Z,99527.22
2023-09-12T10:38:15.499Z,99530.66
2023-09-12T10:40:19.012Z,99532.59
2023-09-12T10:42:22.535Z,99527.91
2023-09-12T10:44:26.044Z,99524.25
2023-09-12T10:46:29.010Z,99521.72
2023-09-12T10:48:33.858Z,99521.34
2023-09-12T10:50:36.836Z,99523.69
2023-09-12T10:52:41.268Z,99512.75
2023-09-12T10:54:44.232Z,99519.63
2023-09-12T10:56:51.849Z,99520.25
2023-09-12T10:59:06.369Z,99523.69
2023-09-12T11:01:27.615Z,99523.94
2023-09-12T11:03:30.466Z,99521.38
2023-09-12T11:05:35.015Z,99520.28
2023-09-12T11:07:37.696Z,99515.34
2023-09-12T11:09:40.626Z,99517.72
2023-09-12T11:11:50.826Z,99507.84
2023-09-12T11:14:06.452Z,99511.50
2023-09-12T11:16:13.795Z,99506.13
2023-09-12T11:18:16.797Z,99510.41
2023-09-12T11:20:19.611Z,99504.19
2023-09-12T11:22:27.357Z,99498.41
2023-09-12T11:24:29.954Z,99494.56
2023-09-12T11:26:32.612Z,99498.84
2023-09-12T11:28:35.635Z,99502.69
2023-09-12T11:30:38.319Z,99494.53
2023-09-12T11:32:41.072Z,99497.97
2023-09-12T11:34:45.943Z,99497.56
2023-09-12T11:36:48.588Z,99496.28
2023-09-12T11:38:51.887Z,99503.53
2023-09-12T11:40:54.404Z,99499.25
2023-09-12T11:42:58.837Z,99501.22
2023-09-12T11:45:02.909Z,99487.28
2023-09-12T11:47:08.088Z,99489.44
2023-09-12T11:49:10.851Z,99483.41
2023-09-12T11:51:13.375Z,99486.41
2023-09-12T11:53:15.916Z,99481.47
2023-09-12T11:55:24.443Z,99478.47
2023-09-12T11:57:27.100Z,99473.09
2023-09-12T11:59:30.760Z,99478.25
2023-09-12T12:01:33.650Z,99473.50
2023-09-12T12:03:36.329Z,99470.50
2023-09-12T12:05:39.577Z,99465.16
2023-09-12T12:07:46.696Z,99472.25
2023-09-12T12:09:49.430Z,99470.50
2023-09-12T12:11:52.093Z,99462.78
2023-09-12T12:13:54.619Z,99466.03
2023-09-12T12:15:58.536Z,99455.06
2023-09-12T12:18:01.449Z,99459.13
2023-09-12T12:20:09.025Z,99457.63
2023-09-12T12:22:11.853Z,99458.06
2023-09-12T12:24:17.337Z,99455.47
2023-09-12T12:26:20.786Z,99455.72
2023-09-12T12:28:23.361Z,99452.06
2023-09-12T12:30:25.838Z,99448.00
2023-09-12T12:32:28.473Z,99451.41
2023-09-12T12:35:10.804Z,99443.22
2023-09-12T12:36:58.402Z,99440.03
2023-09-12T12:39:01.954Z,99444.72
2023-09-12T12:41:04.576Z,99447.31
2023-09-12T12:43:07.677Z,99438.72
2023-09-12T12:45:15.206Z,99448.16
2023-09-12T12:47:17.817Z,99438.88
2023-09-12T12:49:21.765Z,99445.31
2023-09-12T12:51:26.489Z,99442.53
2023-09-12T12:53:53.750Z,99439.94
2023-09-12T12:55:57.174Z,99453.06
2023-09-12T12:57:59.726Z,99440.81
2023-09-12T13:00:04.645Z,99438.25
2023-09-12T13:02:07.451Z,99434.59
2023-09-12T13:04:10.364Z,99437.59
2023-09-12T13:06:18.454Z,99430.31
2023-09-12T13:08:20.999Z,99437.84
2023-09-12T13:10:24.608Z,99430.72
2023-09-12T13:12:27.196Z,99430.94
2023-09-12T13:14:32.481Z,99428.16
2023-09-12T13:16:35.780Z,99419.31
2023-09-12T13:18:39.808Z,99418.47
2023-09-12T13:20:42.294Z,99412.69
2023-09-12T13:22:48.248Z,99416.97
2023-09-12T13:24:50.922Z,99410.75
2023-09-12T13:26:55.067Z,99413.53
2023-09-12T13:28:59.222Z,99419.53
2023-09-12T13:31:02.268Z,99418.47
2023-09-12T13:33:05.405Z,99414.38
2023-09-12T13:35:09.491Z,99412.22
2023-09-12T13:37:13.225Z,99405.13
2023-09-12T13:39:16.244Z,99407.09
2023-09-12T13:41:19.521Z,99409.69
2023-09-12T13:43:21.988Z,99397.88
2023-09-12T13:45:24.551Z,99399.41
2023-09-12T13:47:27.480Z,99405.00
2023-09-12T13:49:30.085Z,99398.97
2023-09-12T13:51:33.054Z,99401.75
2023-09-12T13:53:35.649Z,99406.50
2023-09-12T13:56:00.822Z,99400.06
2023-09-12T13:58:05.852Z,99396.88
2023-09-12T14:00:09.502Z,99397.72
2023-09-12T14:02:12.593Z,99395.97
2023-09-12T14:04:18.066Z,99395.13
2023-09-12T14:06:21.215Z,99399.41
2023-09-12T14:08:24.224Z,99390.63
2023-09-12T14:10:35.227Z,99388.06
2023-09-12T14:12:39.661Z,99396.63
2023-09-12T14:14:43.986Z,99388.69
2023-09-12T14:16:49.265Z,99392.34
2023-09-12T14:18:52.537Z,99389.09
2023-09-12T14:20:56.915Z,99386.97
2023-09-12T14:23:00.826Z,99384.41
2023-09-12T14:25:04.496Z,99386.97
2023-09-12T14:27:11.802Z,99385.28
2023-09-12T14:29:20.701Z,99378.19
2023-09-12T14:31:26.355Z,99385.31
2023-09-12T14:33:29.285Z,99386.59
2023-09-12T14:35:31.758Z,99384.03
2023-09-12T14:37:34.540Z,99389.59
2023-09-12T14:39:37.101Z,99389.81
2023-09-12T14:41:39.595Z,99390.06
2023-09-12T14:43:42.381Z,99390.25
2023-09-12T14:45:45.355Z,99383.19
2023-09-12T14:47:47.898Z,99381.91
2023-09-12T14:49:51.972Z,99387.25
2023-09-12T14:51:55.024Z,99385.97
2023-09-12T14:53:57.674Z,99384.47
2023-09-12T14:56:00.105Z,99382.97
2023-09-12T14:58:02.752Z,99384.25
2023-09-12T15:00:06.065Z,99383.59
2023-09-12T15:02:08.990Z,99379.31
2023-09-12T15:04:15.562Z,99378.69
2023-09-12T15:06:19.784Z,99384.06
2023-09-12T15:08:23.832Z,99380.00
2023-09-12T15:10:26.315Z,99382.97
2023-09-12T15:12:29.171Z,99384.91
2023-09-12T15:14:32.082Z,99377.00
2023-09-12T15:16:36.274Z,99382.78
2023-09-12T15:18:41.851Z,99381.28
2023-09-12T15:20:44.373Z,99381.28
2023-09-12T15:22:46.938Z,99383.44
2023-09-12T15:24:49.440Z,99386.66
2023-09-12T15:26:52.003Z,99387.53
2023-09-12T15:28:54.648Z,99381.31
2023-09-12T15:30:57.233Z,99385.59
2023-09-12T15:32:59.921Z,99392.69
2023-09-12T15:35:04.048Z,99389.69
2023-09-12T15:39:20.292Z,99385.84
2023-09-12T15:41:22.698Z,99382.38
2023-09-12T15:43:25.720Z,99389.88
2023-09-12T15:45:44.838Z,99381.50
2023-09-12T15:47:51.118Z,99383.44
2023-09-12T15:49:53.568Z,99385.16
2023-09-12T15:51:56.380Z,99382.78
2023-09-12T15:53:59.084Z,99377.88
2023-09-12T15:56:01.499Z,99383.00
2023-09-12T15:58:04.171Z,99377.84
2023-09-12T16:00:08.536Z,99383.00
2023-09-12T16:02:18.341Z,99375.47
2023-09-12T16:04:21.339Z,99377.00
2023-09-12T16:06:24.384Z,99383.19
2023-09-12T16:08:28.196Z,99378.22
2023-09-12T16:10:30.726Z,99380.56
2023-09-12T16:12:33.286Z,99384.19
2023-09-12T16:14:36.094Z,99388.47
2023-09-12T16:16:38.481Z,99387.38
2023-09-12T16:18:41.161Z,99381.38
2023-09-12T16:20:43.593Z,99381.34
2023-09-12T16:22:46.021Z,99387.56
2023-09-12T16:24:48.770Z,99388.59
2023-09-12T16:26:51.463Z,99386.88
2023-09-12T16:28:53.846Z,99393.00
2023-09-12T16:30:56.694Z,99384.63
2023-09-12T16:32:59.400Z,99390.38
2023-09-12T16:35:03.007Z,99381.97
2023-09-12T16:37:05.979Z,99386.69
2023-09-12T16:39:08.636Z,99384.91
2023-09-12T16:41:11.064Z,99387.88
2023-09-12T16:43:13.647Z,99397.22
2023-09-12T16:45:16.047Z,99388.81
2023-09-12T16:47:19.179Z,99388.75
2023-09-12T16:49:21.639Z,99386.13
2023-09-12T16:51:24.299Z,99389.06
2023-09-12T16:53:26.723Z,99399.09
2023-09-12T16:55:29.434Z,99395.38
2023-09-12T16:57:31.948Z,99391.69
2023-09-12T16:59:34.596Z,99387.94
2023-09-12T17:01:37.202Z,99393.47
2023-09-12T17:03:43.852Z,99392.34
2023-09-12T17:05:47.107Z,99394.19
2023-09-12T17:07:49.660Z,99398.81
2023-09-12T17:09:53.231Z,99394.06
2023-09-12T17:11:55.766Z,99398.03
2023-09-12T17:13:59.047Z,99394.97
2023-09-12T17:16:01.750Z,99393.38
2023-09-12T17:18:05.575Z,99391.34
2023-09-12T17:20:08.439Z,99392.34
2023-09-12T17:22:13.316Z,99396.09
2023-09-12T17:24:15.922Z,99397.75
2023-09-12T17:26:18.451Z,99399.16
2023-09-12T17:28:21.003Z,99399.69
2023-09-12T17:30:23.881Z,99405.50
2023-09-12T17:32:28.879Z,99401.75
2023-09-12T17:34:46.180Z,99409.31
2023-09-12T17:36:48.742Z,99406.56
2023-09-12T17:38:51.326Z,99407.63
2023-09-12T17:40:53.822Z,99415.66
2023-09-12T17:42:59.941Z,99415.53
2023-09-12T17:45:03.061Z,99421.63
2023-09-12T17:47:05.948Z,99423.28
2023-09-12T17:49:08.698Z,99427.66
2023-09-12T17:51:11.353Z,99430.31
2023-09-12T17:53:14.014Z,99429.34
2023-09-12T17:55:18.377Z,99438.38
2023-09-12T17:57:21.093Z,99435.31
2023-09-12T17:59:24.353Z,99438.00
2023-09-12T18:01:27.441Z,99433.19
2023-09-12T18:03:32.465Z,99440.34
2023-09-12T18:05:35.558Z,99441.94
2023-09-12T18:07:38.350Z,99437.81
2023-09-12T18:09:40.876Z,99447.72
2023-09-12T18:11:43.322Z,99449.88
2023-09-12T18:13:50.628Z,99458.00
2023-09-12T18:15:53.069Z,99459.44
2023-09-12T18:17:55.804Z,99451.31
2023-09-12T18:19:58.296Z,99454.44
2023-09-12T18:22:00.890Z,99452.06
2023-09-12T18:24:03.824Z,99450.19
2023-09-12T18:26:09.111Z,99454.56
2023-09-12T18:28:11.667Z,99461.84
2023-09-12T18:30:14.170Z,99462.38
2023-09-12T18:32:18.304Z,99458.44
2023-09-12T18:34:20.720Z,99464.34
2023-09-12T18:36:23.588Z,99456.06
2023-09-12T18:38:26.071Z,99458.50
2023-09-12T18:40:29.835Z,99460.22
2023-09-12T18:42:32.359Z,99459.22
2023-09-12T18:44:34.683Z,99458.88
2023-09-12T18:46:37.621Z,99462.16
2023-09-12T18:48:41.681Z,99464.59
2023-09-12T18:50:45.601Z,99458.59
2023-09-12T18:52:55.062Z,99459.31
2023-09-12T18:54:58.273Z,99464.31
2023-09-12T18:57:01.638Z,99462.75
2023-09-12T18:59:04.266Z,99468.50
2023-09-12T19:01:09.408Z,99465.19
2023-09-12T19:03:15.964Z,99464.88
2023-09-12T19:05:18.988Z,99463.50
2023-09-12T19:07:21.410Z,99462.97
2023-09-12T19:09:24.136Z,99472.69
2023-09-12T19:11:26.593Z,99471.59
2023-09-12T19:13:29.118Z,99469.00
2023-09-12T19:15:31.929Z,99467.47
2023-09-12T19:17:34.336Z,99474.56
2023-09-12T19:19:37.154Z,99467.47
2023-09-12T19:21:40.091Z,99466.63
2023-09-12T19:23:42.574Z,99469.03
2023-09-12T19:25:49.327Z,99472.16
2023-09-12T19:27:51.917Z,99462.31
2023-09-12T19:29:58.240Z,99464.38
2023-09-12T19:32:01.031Z,99462.81
2023-09-12T19:34:05.010Z,99471.63
2023-09-12T19:36:07.594Z,99463.69
2023-09-12T19:38:10.687Z,99475.75
2023-09-12T19:40:16.331Z,99475.75
2023-09-12T19:42:19.608Z,99471.44
2023-09-12T19:44:21.950Z,99465.56
2023-09-12T19:46:24.740Z,99469.72
2023-09-12T19:48:27.201Z,99477.16
2023-09-12T19:50:32.742Z,99472.84
2023-09-12T19:52:35.050Z,99472.78
2023-09-12T19:54:37.723Z,99470.19
2023-09-12T19:56:40.193Z,99471.22
2023-09-12T19:58:42.708Z,99469.84
2023-09-12T20:00:45.253Z,99472.25
2023-09-12T20:02:50.475Z,99468.59
2023-09-12T20:04:53.201Z,99465.69
2023-09-12T20:06:56.605Z,99462.56
2023-09-12T20:08:59.357Z,99464.81
2023-09-12T20:11:01.748Z,99467.56
2023-09-12T20:13:04.401Z,99465.66
2023-09-12T20:15:07.661Z,99468.56
2023-09-12T20:17:10.122Z,99467.72
2023-09-12T20:19:12.987Z,99466.66
2023-09-12T20:21:15.684Z,99467.16
2023-09-12T20:23:18.071Z,99462.69
2023-09-12T20:25:22.801Z,99470.97
2023-09-12T20:27:25.209Z,99463.53
2023-09-12T20:29:27.939Z,99461.47
2023-09-12T20:31:30.307Z,99456.28
2023-09-12T20:33:33.104Z,99459.13
2023-09-12T20:35:36.608Z,99466.09
2023-09-12T20:37:41.705Z,99459.22
2023-09-12T20:39:44.562Z,99458.13
2023-09-12T20:41:47.080Z,99469.66
2023-09-12T20:43:49.679Z,99462.56
2023-09-12T20:45:54.532Z,99458.91
2023-09-12T20:47:57.199Z,99462.88
2023-09-12T20:50:01.243Z,99460.97
2023-09-12T20:52:04.014Z,99463.16
2023-09-12T20:54:09.827Z,99454.59
2023-09-12T20:56:14.749Z,99458.13
2023-09-12T20:58:18.228Z,99452.41
2023-09-12T21:00:21.938Z,99451.56
2023-09-12T21:02:24.596Z,99457.06
2023-09-12T21:04:27.210Z,99455.63
2023-09-12T21:06:29.716Z,99452.25
2023-09-12T21:08:32.896Z,99443.28
2023-09-12T21:10:35.442Z,99448.94
2023-09-12T21:12:38.074Z,99458.06
2023-09-12T21:14:40.529Z,99456.09
2023-09-12T21:16:43.277Z,99454.53
2023-09-12T21:18:46.019Z,99454.00
2023-09-12T21:20:49.682Z,99451.97
2023-09-12T21:22:52.198Z,99460.94
2023-09-12T21:24:54.829Z,99455.03
2023-09-12T21:26:57.397Z,99457.47
2023-09-12T21:28:59.903Z,99454.84
2023-09-12T21:31:02.621Z,99451.97
2023-09-12T21:33:05.567Z,99454.94
2023-09-12T21:35:16.395Z,99453.22
2023-09-12T21:37:18.974Z,99448.88
2023-09-12T21:39:21.688Z,99457.69
2023-09-12T21:41:24.065Z,99459.75
2023-09-12T21:43:27.414Z,99454.84
2023-09-12T21:45:29.943Z,99466.81
2023-09-12T21:47:33.215Z,99455.44
2023-09-12T21:49:35.996Z,99464.06
2023-09-12T21:51:38.684Z,99458.25
2023-09-12T21:53:41.872Z,99455.63
2023-09-12T21:55:44.715Z,99463.00
2023-09-12T21:57:47.454Z,99457.78
2023-09-12T21:59:49.925Z,99455.44
2023-09-12T22:01:52.538Z,99457.69
2023-09-12T22:03:55.038Z,99462.03
2023-09-12T22:05:57.608Z,99466.53
2023-09-12T22:08:00.149Z,99460.31
2023-09-12T22:10:05.229Z,99454.09
2023-09-12T22:12:08.254Z,99456.84
2023-09-12T22:14:11.261Z,99460.63
2023-09-12T22:16:13.820Z,99465.28
2023-09-12T22:18:16.332Z,99468.56
2023-09-12T22:20:18.802Z,99463.78
2023-09-12T22:22:23.726Z,99463.06
2023-09-12T22:24:26.335Z,99464.78
2023-09-12T22:26:29.046Z,99465.84
2023-09-12T22:28:33.501Z,99467.91
2023-09-12T22:30:35.999Z,99472.72
2023-09-12T22:32:39.060Z,99462.25
2023-09-12T22:34:42.052Z,99464.22
2023-09-12T22:36:44.504Z,99466.97
2023-09-12T22:38:48.143Z,99475.38
2023-09-12T22:40:52.739Z,99472.22
2023-09-12T22:42:55.255Z,99478.63
2023-09-12T22:44:57.819Z,99475.16
2023-09-12T22:47:01.661Z,99469.66
2023-09-12T22:49:04.285Z,99479.78
2023-09-12T22:51:06.711Z,99468.53
2023-09-12T22:53:09.451Z,99474.91
2023-09-12T22:55:12.323Z,99485.50
2023-09-12T22:57:14.821Z,99474.19
2023-09-12T22:59:17.321Z,99478.44
2023-09-12T23:01:20.150Z,99477.44
2023-09-12T23:03:22.721Z,99485.50
2023-09-12T23:05:25.344Z,99483.63
2023-09-12T23:07:27.820Z,99486.06
2023-09-12T23:09:31.123Z,99488.50
2023-09-12T23:11:33.523Z,99487.34
2023-09-12T23:13:36.062Z,99487.34
2023-09-12T23:15:38.848Z,99481.97
2023-09-12T23:17:41.409Z,99477.09
2023-09-12T23:19:44.129Z,99477.25
2023-09-12T23:21:46.608Z,99469.97
2023-09-12T23:23:49.329Z,99476.78
2023-09-12T23:25:53.922Z,99483.44
2023-09-12T23:27:56.476Z,99475.91
2023-09-12T23:29:59.283Z,99469.84
2023-09-12T23:32:01.878Z,99474.34
2023-09-12T23:34:05.346Z,99474.47
2023-09-12T23:36:07.899Z,99470.16
2023-09-12T23:38:10.329Z,99471.91
2023-09-12T23:40:12.808Z,99474.16
2023-09-12T23:42:15.249Z,99468.91
2023-09-12T23:44:17.614Z,99465.03
2023-09-12T23:46:20.203Z,99468.81
2023-09-12T23:48:22.736Z,99468.63
2023-09-12T23:50:25.461Z,99466.91
2023-09-12T23:52:29.083Z,99465.34
2023-09-12T23:54:31.815Z,99466.78
2023-09-12T23:56:37.350Z,99459.31
2023-09-12T23:58:40.027Z,99466.97
